sensor_id;sensor_type;location;lat;lon;timestamp;P1;durP1;ratioP1;P2;durP2;ratioP2
20725;SDS011;10524;48.132;8.518;2023-04-10T00:02:08;20.58;;;13.20;;
20725;SDS011;10524;48.132;8.518;2023-04-10T00:04:34;21.38;;;14.43;;
20725;SDS011;10524;48.132;8.518;2023-04-10T00:06:59;21.17;;;13.18;;
20725;SDS011;10524;48.132;8.518;2023-04-10T00:09:25;21.65;;;13.75;;
20725;SDS011;10524;48.132;8.518;2023-04-10T00:11:52;21.13;;;12.18;;
20725;SDS011;10524;48.132;8.518;2023-04-10T00:14:18;21.40;;;12.02;;
20725;SDS011;10524;48.132;8.518;2023-04-10T00:16:48;25.42;;;14.98;;
20725;SDS011;10524;48.132;8.518;2023-04-10T00:19:14;24.63;;;14.98;;
20725;SDS011;10524;48.132;8.518;2023-04-10T00:21:40;22.08;;;13.23;;
20725;SDS011;10524;48.132;8.518;2023-04-10T00:24:06;20.77;;;13.65;;
20725;SDS011;10524;48.132;8.518;2023-04-10T00:26:31;20.42;;;13.55;;
20725;SDS011;10524;48.132;8.518;2023-04-10T00:28:57;20.60;;;13.80;;
20725;SDS011;10524;48.132;8.518;2023-04-10T00:31:23;21.38;;;14.48;;
20725;SDS011;10524;48.132;8.518;2023-04-10T00:33:48;21.67;;;13.40;;
20725;SDS011;10524;48.132;8.518;2023-04-10T00:36:14;20.55;;;13.52;;
20725;SDS011;10524;48.132;8.518;2023-04-10T00:38:40;21.85;;;13.63;;
20725;SDS011;10524;48.132;8.518;2023-04-10T00:41:06;22.65;;;13.57;;
20725;SDS011;10524;48.132;8.518;2023-04-10T00:43:31;23.35;;;11.85;;
20725;SDS011;10524;48.132;8.518;2023-04-10T00:45:57;19.85;;;11.75;;
20725;SDS011;10524;48.132;8.518;2023-04-10T00:48:23;22.35;;;11.90;;
20725;SDS011;10524;48.132;8.518;2023-04-10T00:50:50;20.83;;;11.57;;
20725;SDS011;10524;48.132;8.518;2023-04-10T00:53:15;20.70;;;10.93;;
20725;SDS011;10524;48.132;8.518;2023-04-10T00:55:43;18.92;;;12.05;;
20725;SDS011;10524;48.132;8.518;2023-04-10T00:58:09;20.55;;;13.18;;
20725;SDS011;10524;48.132;8.518;2023-04-10T01:00:38;22.50;;;14.27;;
20725;SDS011;10524;48.132;8.518;2023-04-10T01:03:05;20.40;;;13.40;;
20725;SDS011;10524;48.132;8.518;2023-04-10T01:05:34;21.88;;;13.73;;
20725;SDS011;10524;48.132;8.518;2023-04-10T01:08:10;21.52;;;14.13;;
20725;SDS011;10524;48.132;8.518;2023-04-10T01:11:09;24.58;;;14.35;;
20725;SDS011;10524;48.132;8.518;2023-04-10T01:13:43;23.92;;;15.40;;
20725;SDS011;10524;48.132;8.518;2023-04-10T01:16:28;25.33;;;16.10;;
20725;SDS011;10524;48.132;8.518;2023-04-10T01:21:27;23.67;;;13.50;;
20725;SDS011;10524;48.132;8.518;2023-04-10T01:27:31;28.88;;;15.43;;
20725;SDS011;10524;48.132;8.518;2023-04-10T01:29:46;22.83;;;14.38;;
20725;SDS011;10524;48.132;8.518;2023-04-10T01:32:16;25.55;;;15.73;;
20725;SDS011;10524;48.132;8.518;2023-04-10T01:34:46;23.85;;;15.02;;
20725;SDS011;10524;48.132;8.518;2023-04-10T01:37:25;23.95;;;13.32;;
20725;SDS011;10524;48.132;8.518;2023-04-10T01:39:59;25.08;;;14.93;;
20725;SDS011;10524;48.132;8.518;2023-04-10T01:42:27;25.88;;;14.38;;
20725;SDS011;10524;48.132;8.518;2023-04-10T01:44:58;28.50;;;16.43;;
20725;SDS011;10524;48.132;8.518;2023-04-10T01:47:25;23.83;;;14.68;;
20725;SDS011;10524;48.132;8.518;2023-04-10T01:49:51;26.98;;;15.13;;
20725;SDS011;10524;48.132;8.518;2023-04-10T01:52:18;27.92;;;16.40;;
20725;SDS011;10524;48.132;8.518;2023-04-10T01:54:46;24.70;;;14.40;;
20725;SDS011;10524;48.132;8.518;2023-04-10T01:57:15;22.35;;;12.13;;
20725;SDS011;10524;48.132;8.518;2023-04-10T01:59:41;30.45;;;16.98;;
20725;SDS011;10524;48.132;8.518;2023-04-10T02:02:08;28.00;;;15.50;;
20725;SDS011;10524;48.132;8.518;2023-04-10T02:04:36;26.20;;;14.38;;
20725;SDS011;10524;48.132;8.518;2023-04-10T02:09:36;22.23;;;14.40;;
20725;SDS011;10524;48.132;8.518;2023-04-10T02:12:15;23.23;;;13.80;;
20725;SDS011;10524;48.132;8.518;2023-04-10T02:14:46;23.65;;;13.95;;
20725;SDS011;10524;48.132;8.518;2023-04-10T02:17:15;23.13;;;13.65;;
20725;SDS011;10524;48.132;8.518;2023-04-10T02:19:45;22.98;;;13.82;;
20725;SDS011;10524;48.132;8.518;2023-04-10T02:22:12;22.50;;;13.63;;
20725;SDS011;10524;48.132;8.518;2023-04-10T02:24:40;22.95;;;13.10;;
20725;SDS011;10524;48.132;8.518;2023-04-10T02:27:05;20.77;;;13.60;;
20725;SDS011;10524;48.132;8.518;2023-04-10T02:29:31;24.02;;;14.13;;
20725;SDS011;10524;48.132;8.518;2023-04-10T02:31:56;23.45;;;14.35;;
20725;SDS011;10524;48.132;8.518;2023-04-10T02:34:22;22.70;;;14.05;;
20725;SDS011;10524;48.132;8.518;2023-04-10T02:36:48;21.38;;;13.43;;
20725;SDS011;10524;48.132;8.518;2023-04-10T02:39:13;22.83;;;13.55;;
20725;SDS011;10524;48.132;8.518;2023-04-10T02:41:39;25.00;;;14.50;;
20725;SDS011;10524;48.132;8.518;2023-04-10T02:44:05;24.67;;;14.82;;
20725;SDS011;10524;48.132;8.518;2023-04-10T02:46:30;22.95;;;12.98;;
20725;SDS011;10524;48.132;8.518;2023-04-10T02:48:56;26.20;;;14.65;;
20725;SDS011;10524;48.132;8.518;2023-04-10T02:51:22;28.40;;;16.10;;
20725;SDS011;10524;48.132;8.518;2023-04-10T02:53:48;25.48;;;15.30;;
20725;SDS011;10524;48.132;8.518;2023-04-10T02:56:13;21.33;;;13.55;;
20725;SDS011;10524;48.132;8.518;2023-04-10T02:58:39;23.95;;;14.20;;
20725;SDS011;10524;48.132;8.518;2023-04-10T03:01:09;24.85;;;14.48;;
20725;SDS011;10524;48.132;8.518;2023-04-10T03:03:35;26.92;;;15.18;;
20725;SDS011;10524;48.132;8.518;2023-04-10T03:06:00;21.42;;;13.77;;
20725;SDS011;10524;48.132;8.518;2023-04-10T03:08:26;25.52;;;14.55;;
20725;SDS011;10524;48.132;8.518;2023-04-10T03:10:51;23.60;;;13.73;;
20725;SDS011;10524;48.132;8.518;2023-04-10T03:13:17;27.17;;;15.60;;
20725;SDS011;10524;48.132;8.518;2023-04-10T03:15:43;31.90;;;16.75;;
20725;SDS011;10524;48.132;8.518;2023-04-10T03:18:08;28.25;;;15.32;;
20725;SDS011;10524;48.132;8.518;2023-04-10T03:20:34;28.30;;;15.70;;
20725;SDS011;10524;48.132;8.518;2023-04-10T03:23:02;26.45;;;15.07;;
20725;SDS011;10524;48.132;8.518;2023-04-10T03:25:29;27.52;;;16.77;;
20725;SDS011;10524;48.132;8.518;2023-04-10T03:27:56;26.05;;;15.40;;
20725;SDS011;10524;48.132;8.518;2023-04-10T03:30:21;25.25;;;14.70;;
20725;SDS011;10524;48.132;8.518;2023-04-10T03:32:47;25.08;;;15.10;;
20725;SDS011;10524;48.132;8.518;2023-04-10T03:35:13;27.75;;;15.05;;
20725;SDS011;10524;48.132;8.518;2023-04-10T03:37:38;29.08;;;17.20;;
20725;SDS011;10524;48.132;8.518;2023-04-10T03:40:06;25.48;;;15.23;;
20725;SDS011;10524;48.132;8.518;2023-04-10T03:42:33;27.58;;;16.02;;
20725;SDS011;10524;48.132;8.518;2023-04-10T03:44:59;25.52;;;14.00;;
20725;SDS011;10524;48.132;8.518;2023-04-10T03:47:28;23.30;;;14.00;;
20725;SDS011;10524;48.132;8.518;2023-04-10T03:49:54;24.33;;;15.00;;
20725;SDS011;10524;48.132;8.518;2023-04-10T03:52:20;23.05;;;14.00;;
20725;SDS011;10524;48.132;8.518;2023-04-10T03:54:46;24.02;;;14.82;;
20725;SDS011;10524;48.132;8.518;2023-04-10T03:57:12;23.33;;;14.63;;
20725;SDS011;10524;48.132;8.518;2023-04-10T03:59:37;22.40;;;13.85;;
20725;SDS011;10524;48.132;8.518;2023-04-10T04:02:03;25.15;;;14.63;;
20725;SDS011;10524;48.132;8.518;2023-04-10T04:04:30;27.40;;;15.48;;
20725;SDS011;10524;48.132;8.518;2023-04-10T04:06:56;29.63;;;16.75;;
20725;SDS011;10524;48.132;8.518;2023-04-10T04:09:21;30.48;;;16.13;;
20725;SDS011;10524;48.132;8.518;2023-04-10T04:11:47;25.80;;;15.35;;
20725;SDS011;10524;48.132;8.518;2023-04-10T04:14:13;25.65;;;14.98;;
20725;SDS011;10524;48.132;8.518;2023-04-10T04:16:38;23.95;;;13.63;;
20725;SDS011;10524;48.132;8.518;2023-04-10T04:19:04;23.33;;;13.98;;
20725;SDS011;10524;48.132;8.518;2023-04-10T04:21:29;23.40;;;14.80;;
20725;SDS011;10524;48.132;8.518;2023-04-10T04:23:55;24.13;;;14.52;;
20725;SDS011;10524;48.132;8.518;2023-04-10T04:26:21;24.90;;;14.98;;
20725;SDS011;10524;48.132;8.518;2023-04-10T04:28:48;25.50;;;14.80;;
20725;SDS011;10524;48.132;8.518;2023-04-10T04:31:14;23.50;;;14.15;;
20725;SDS011;10524;48.132;8.518;2023-04-10T04:33:40;23.08;;;13.65;;
20725;SDS011;10524;48.132;8.518;2023-04-10T04:36:06;25.73;;;14.73;;
20725;SDS011;10524;48.132;8.518;2023-04-10T04:38:32;23.75;;;13.90;;
20725;SDS011;10524;48.132;8.518;2023-04-10T04:40:57;26.05;;;14.40;;
20725;SDS011;10524;48.132;8.518;2023-04-10T04:43:23;24.60;;;14.80;;
20725;SDS011;10524;48.132;8.518;2023-04-10T04:45:49;26.02;;;15.77;;
20725;SDS011;10524;48.132;8.518;2023-04-10T04:48:15;28.05;;;15.30;;
20725;SDS011;10524;48.132;8.518;2023-04-10T04:50:40;24.73;;;14.07;;
20725;SDS011;10524;48.132;8.518;2023-04-10T04:53:07;23.25;;;14.27;;
20725;SDS011;10524;48.132;8.518;2023-04-10T04:55:35;24.95;;;14.15;;
20725;SDS011;10524;48.132;8.518;2023-04-10T04:58:00;26.48;;;14.68;;
20725;SDS011;10524;48.132;8.518;2023-04-10T05:00:26;27.00;;;14.68;;
20725;SDS011;10524;48.132;8.518;2023-04-10T05:02:51;25.65;;;15.07;;
20725;SDS011;10524;48.132;8.518;2023-04-10T05:05:17;26.10;;;15.32;;
20725;SDS011;10524;48.132;8.518;2023-04-10T05:07:43;23.92;;;13.00;;
20725;SDS011;10524;48.132;8.518;2023-04-10T05:10:08;19.02;;;11.38;;
20725;SDS011;10524;48.132;8.518;2023-04-10T05:12:34;18.52;;;11.55;;
20725;SDS011;10524;48.132;8.518;2023-04-10T05:15:00;18.20;;;11.27;;
20725;SDS011;10524;48.132;8.518;2023-04-10T05:17:26;17.17;;;11.05;;
20725;SDS011;10524;48.132;8.518;2023-04-10T05:19:51;15.40;;;9.85;;
20725;SDS011;10524;48.132;8.518;2023-04-10T05:22:17;17.30;;;10.80;;
20725;SDS011;10524;48.132;8.518;2023-04-10T05:24:42;17.00;;;10.93;;
20725;SDS011;10524;48.132;8.518;2023-04-10T05:27:08;20.13;;;11.85;;
20725;SDS011;10524;48.132;8.518;2023-04-10T05:29:34;23.30;;;14.45;;
20725;SDS011;10524;48.132;8.518;2023-04-10T05:32:00;26.67;;;15.05;;
20725;SDS011;10524;48.132;8.518;2023-04-10T05:34:25;19.52;;;13.00;;
20725;SDS011;10524;48.132;8.518;2023-04-10T05:36:51;19.50;;;13.15;;
20725;SDS011;10524;48.132;8.518;2023-04-10T05:39:17;18.10;;;12.50;;
20725;SDS011;10524;48.132;8.518;2023-04-10T05:41:42;18.30;;;12.10;;
20725;SDS011;10524;48.132;8.518;2023-04-10T05:44:08;15.70;;;10.52;;
20725;SDS011;10524;48.132;8.518;2023-04-10T05:46:33;15.55;;;11.05;;
20725;SDS011;10524;48.132;8.518;2023-04-10T05:48:59;14.65;;;9.85;;
20725;SDS011;10524;48.132;8.518;2023-04-10T05:51:25;12.23;;;8.75;;
20725;SDS011;10524;48.132;8.518;2023-04-10T05:53:51;12.13;;;8.60;;
20725;SDS011;10524;48.132;8.518;2023-04-10T05:56:17;12.75;;;9.15;;
20725;SDS011;10524;48.132;8.518;2023-04-10T05:58:42;13.57;;;8.52;;
20725;SDS011;10524;48.132;8.518;2023-04-10T06:01:08;13.35;;;9.30;;
20725;SDS011;10524;48.132;8.518;2023-04-10T06:03:33;13.65;;;9.10;;
20725;SDS011;10524;48.132;8.518;2023-04-10T06:06:00;11.85;;;8.85;;
20725;SDS011;10524;48.132;8.518;2023-04-10T06:08:26;12.02;;;8.55;;
20725;SDS011;10524;48.132;8.518;2023-04-10T06:10:52;12.43;;;8.23;;
20725;SDS011;10524;48.132;8.518;2023-04-10T06:13:18;10.38;;;8.02;;
20725;SDS011;10524;48.132;8.518;2023-04-10T06:15:43;11.00;;;8.07;;
20725;SDS011;10524;48.132;8.518;2023-04-10T06:18:09;10.50;;;7.72;;
20725;SDS011;10524;48.132;8.518;2023-04-10T06:20:35;12.20;;;8.88;;
20725;SDS011;10524;48.132;8.518;2023-04-10T06:23:01;10.82;;;8.25;;
20725;SDS011;10524;48.132;8.518;2023-04-10T06:25:27;10.57;;;8.32;;
20725;SDS011;10524;48.132;8.518;2023-04-10T06:27:53;10.55;;;7.70;;
20725;SDS011;10524;48.132;8.518;2023-04-10T06:30:18;11.18;;;8.60;;
20725;SDS011;10524;48.132;8.518;2023-04-10T06:32:44;12.55;;;9.35;;
20725;SDS011;10524;48.132;8.518;2023-04-10T06:35:10;11.07;;;8.68;;
20725;SDS011;10524;48.132;8.518;2023-04-10T06:37:35;9.82;;;8.05;;
20725;SDS011;10524;48.132;8.518;2023-04-10T06:40:05;8.55;;;7.13;;
20725;SDS011;10524;48.132;8.518;2023-04-10T06:42:32;8.40;;;6.97;;
20725;SDS011;10524;48.132;8.518;2023-04-10T06:44:59;9.48;;;7.50;;
20725;SDS011;10524;48.132;8.518;2023-04-10T06:47:24;8.90;;;7.38;;
20725;SDS011;10524;48.132;8.518;2023-04-10T06:49:50;9.52;;;7.28;;
20725;SDS011;10524;48.132;8.518;2023-04-10T06:52:16;8.65;;;7.40;;
20725;SDS011;10524;48.132;8.518;2023-04-10T06:54:42;8.48;;;7.50;;
20725;SDS011;10524;48.132;8.518;2023-04-10T06:57:07;6.45;;;5.85;;
20725;SDS011;10524;48.132;8.518;2023-04-10T06:59:33;5.53;;;5.00;;
20725;SDS011;10524;48.132;8.518;2023-04-10T07:01:59;6.28;;;5.68;;
20725;SDS011;10524;48.132;8.518;2023-04-10T07:04:26;6.70;;;6.07;;
20725;SDS011;10524;48.132;8.518;2023-04-10T07:06:52;6.75;;;6.13;;
20725;SDS011;10524;48.132;8.518;2023-04-10T07:09:17;6.10;;;5.50;;
20725;SDS011;10524;48.132;8.518;2023-04-10T07:11:43;6.10;;;5.28;;
20725;SDS011;10524;48.132;8.518;2023-04-10T07:14:08;5.40;;;4.90;;
20725;SDS011;10524;48.132;8.518;2023-04-10T07:16:34;5.60;;;5.10;;
20725;SDS011;10524;48.132;8.518;2023-04-10T07:19:00;5.45;;;4.95;;
20725;SDS011;10524;48.132;8.518;2023-04-10T07:21:25;6.63;;;5.30;;
20725;SDS011;10524;48.132;8.518;2023-04-10T07:23:51;6.40;;;5.80;;
20725;SDS011;10524;48.132;8.518;2023-04-10T07:26:17;6.82;;;5.43;;
20725;SDS011;10524;48.132;8.518;2023-04-10T07:28:43;6.03;;;5.43;;
20725;SDS011;10524;48.132;8.518;2023-04-10T07:31:09;6.43;;;5.60;;
20725;SDS011;10524;48.132;8.518;2023-04-10T07:33:36;6.43;;;5.80;;
20725;SDS011;10524;48.132;8.518;2023-04-10T07:36:02;5.85;;;5.22;;
20725;SDS011;10524;48.132;8.518;2023-04-10T07:38:30;6.10;;;5.50;;
20725;SDS011;10524;48.132;8.518;2023-04-10T07:40:56;5.97;;;5.38;;
20725;SDS011;10524;48.132;8.518;2023-04-10T07:43:22;5.60;;;5.10;;
20725;SDS011;10524;48.132;8.518;2023-04-10T07:45:48;5.07;;;4.60;;
20725;SDS011;10524;48.132;8.518;2023-04-10T07:48:14;5.32;;;4.80;;
20725;SDS011;10524;48.132;8.518;2023-04-10T07:50:40;5.80;;;4.88;;
20725;SDS011;10524;48.132;8.518;2023-04-10T07:53:05;5.35;;;4.85;;
20725;SDS011;10524;48.132;8.518;2023-04-10T07:55:43;5.25;;;4.75;;
20725;SDS011;10524;48.132;8.518;2023-04-10T07:58:11;5.57;;;5.05;;
20725;SDS011;10524;48.132;8.518;2023-04-10T08:00:37;5.43;;;4.93;;
20725;SDS011;10524;48.132;8.518;2023-04-10T08:03:03;5.60;;;5.10;;
20725;SDS011;10524;48.132;8.518;2023-04-10T08:05:29;5.22;;;4.72;;
20725;SDS011;10524;48.132;8.518;2023-04-10T08:07:55;5.18;;;4.68;;
20725;SDS011;10524;48.132;8.518;2023-04-10T08:10:21;4.95;;;4.45;;
20725;SDS011;10524;48.132;8.518;2023-04-10T08:12:46;5.32;;;4.60;;
20725;SDS011;10524;48.132;8.518;2023-04-10T08:15:12;4.90;;;4.38;;
20725;SDS011;10524;48.132;8.518;2023-04-10T08:17:38;4.88;;;4.40;;
20725;SDS011;10524;48.132;8.518;2023-04-10T08:20:03;5.60;;;5.00;;
20725;SDS011;10524;48.132;8.518;2023-04-10T08:22:30;4.70;;;4.20;;
20725;SDS011;10524;48.132;8.518;2023-04-10T08:24:56;5.07;;;4.53;;
20725;SDS011;10524;48.132;8.518;2023-04-10T08:27:21;4.72;;;4.30;;
20725;SDS011;10524;48.132;8.518;2023-04-10T08:29:47;5.60;;;4.90;;
20725;SDS011;10524;48.132;8.518;2023-04-10T08:32:12;3.97;;;3.58;;
20725;SDS011;10524;48.132;8.518;2023-04-10T08:34:38;4.72;;;4.32;;
20725;SDS011;10524;48.132;8.518;2023-04-10T08:37:04;4.57;;;4.18;;
20725;SDS011;10524;48.132;8.518;2023-04-10T08:39:33;4.43;;;3.88;;
20725;SDS011;10524;48.132;8.518;2023-04-10T08:41:59;4.28;;;3.88;;
20725;SDS011;10524;48.132;8.518;2023-04-10T08:44:25;4.15;;;3.75;;
20725;SDS011;10524;48.132;8.518;2023-04-10T08:46:51;4.50;;;4.10;;
20725;SDS011;10524;48.132;8.518;2023-04-10T08:49:23;4.43;;;4.03;;
20725;SDS011;10524;48.132;8.518;2023-04-10T08:51:55;9.57;;;8.68;;
20725;SDS011;10524;48.132;8.518;2023-04-10T08:54:26;4.55;;;4.10;;
20725;SDS011;10524;48.132;8.518;2023-04-10T08:56:54;10.88;;;9.88;;
20725;SDS011;10524;48.132;8.518;2023-04-10T08:59:20;5.10;;;4.60;;
20725;SDS011;10524;48.132;8.518;2023-04-10T09:01:47;6.60;;;6.00;;
20725;SDS011;10524;48.132;8.518;2023-04-10T09:04:13;4.82;;;4.10;;
20725;SDS011;10524;48.132;8.518;2023-04-10T09:06:39;4.45;;;4.05;;
20725;SDS011;10524;48.132;8.518;2023-04-10T09:09:05;4.82;;;4.40;;
20725;SDS011;10524;48.132;8.518;2023-04-10T09:14:30;4.30;;;3.90;;
20725;SDS011;10524;48.132;8.518;2023-04-10T09:17:10;3.78;;;3.30;;
20725;SDS011;10524;48.132;8.518;2023-04-10T09:19:37;4.05;;;3.67;;
20725;SDS011;10524;48.132;8.518;2023-04-10T09:22:03;3.47;;;3.17;;
20725;SDS011;10524;48.132;8.518;2023-04-10T09:24:28;3.97;;;3.58;;
20725;SDS011;10524;48.132;8.518;2023-04-10T09:26:54;3.60;;;3.30;;
20725;SDS011;10524;48.132;8.518;2023-04-10T09:29:20;3.60;;;3.30;;
20725;SDS011;10524;48.132;8.518;2023-04-10T09:31:46;3.85;;;3.45;;
20725;SDS011;10524;48.132;8.518;2023-04-10T09:34:12;3.55;;;3.25;;
20725;SDS011;10524;48.132;8.518;2023-04-10T09:36:52;6.45;;;3.30;;
20725;SDS011;10524;48.132;8.518;2023-04-10T09:39:31;3.28;;;2.97;;
20725;SDS011;10524;48.132;8.518;2023-04-10T09:41:57;3.50;;;3.20;;
20725;SDS011;10524;48.132;8.518;2023-04-10T09:44:34;3.42;;;2.75;;
20725;SDS011;10524;48.132;8.518;2023-04-10T09:49:50;3.20;;;2.90;;
20725;SDS011;10524;48.132;8.518;2023-04-10T09:54:43;3.10;;;2.80;;
20725;SDS011;10524;48.132;8.518;2023-04-10T09:57:10;2.75;;;2.50;;
20725;SDS011;10524;48.132;8.518;2023-04-10T09:59:40;3.53;;;3.20;;
20725;SDS011;10524;48.132;8.518;2023-04-10T10:02:11;2.88;;;2.67;;
20725;SDS011;10524;48.132;8.518;2023-04-10T10:04:38;2.88;;;2.58;;
20725;SDS011;10524;48.132;8.518;2023-04-10T10:07:06;2.40;;;2.20;;
20725;SDS011;10524;48.132;8.518;2023-04-10T10:09:32;2.22;;;2.03;;
20725;SDS011;10524;48.132;8.518;2023-04-10T10:11:59;2.13;;;1.92;;
20725;SDS011;10524;48.132;8.518;2023-04-10T10:14:27;2.20;;;2.00;;
20725;SDS011;10524;48.132;8.518;2023-04-10T10:16:54;1.88;;;1.73;;
20725;SDS011;10524;48.132;8.518;2023-04-10T10:19:26;2.25;;;2.00;;
20725;SDS011;10524;48.132;8.518;2023-04-10T10:21:55;3.22;;;2.00;;
20725;SDS011;10524;48.132;8.518;2023-04-10T10:24:23;2.10;;;1.90;;
20725;SDS011;10524;48.132;8.518;2023-04-10T10:26:50;1.75;;;1.65;;
20725;SDS011;10524;48.132;8.518;2023-04-10T10:29:18;1.60;;;1.50;;
20725;SDS011;10524;48.132;8.518;2023-04-10T10:31:46;1.42;;;1.33;;
20725;SDS011;10524;48.132;8.518;2023-04-10T10:34:12;1.33;;;1.23;;
20725;SDS011;10524;48.132;8.518;2023-04-10T10:36:40;1.50;;;1.40;;
20725;SDS011;10524;48.132;8.518;2023-04-10T10:39:13;1.40;;;1.15;;
20725;SDS011;10524;48.132;8.518;2023-04-10T10:41:50;1.50;;;1.40;;
20725;SDS011;10524;48.132;8.518;2023-04-10T10:47:43;1.23;;;1.13;;
20725;SDS011;10524;48.132;8.518;2023-04-10T10:50:13;1.40;;;1.30;;
20725;SDS011;10524;48.132;8.518;2023-04-10T10:52:43;1.17;;;1.08;;
20725;SDS011;10524;48.132;8.518;2023-04-10T10:57:52;1.40;;;1.20;;
20725;SDS011;10524;48.132;8.518;2023-04-10T11:00:20;1.40;;;1.30;;
20725;SDS011;10524;48.132;8.518;2023-04-10T11:08:34;1.30;;;1.20;;
20725;SDS011;10524;48.132;8.518;2023-04-10T11:16:41;1.10;;;1.00;;
20725;SDS011;10524;48.132;8.518;2023-04-10T11:19:08;1.75;;;1.30;;
20725;SDS011;10524;48.132;8.518;2023-04-10T11:24:52;1.10;;;0.80;;
20725;SDS011;10524;48.132;8.518;2023-04-10T11:30:27;1.20;;;0.90;;
20725;SDS011;10524;48.132;8.518;2023-04-10T11:32:53;1.10;;;1.00;;
20725;SDS011;10524;48.132;8.518;2023-04-10T11:35:19;1.15;;;1.05;;
20725;SDS011;10524;48.132;8.518;2023-04-10T11:37:45;1.10;;;1.00;;
20725;SDS011;10524;48.132;8.518;2023-04-10T11:40:11;2.00;;;0.90;;
20725;SDS011;10524;48.132;8.518;2023-04-10T11:42:37;1.52;;;0.90;;
20725;SDS011;10524;48.132;8.518;2023-04-10T11:47:52;1.10;;;1.00;;
20725;SDS011;10524;48.132;8.518;2023-04-10T11:50:18;1.55;;;1.45;;
20725;SDS011;10524;48.132;8.518;2023-04-10T11:52:46;1.40;;;1.30;;
20725;SDS011;10524;48.132;8.518;2023-04-10T11:55:16;1.30;;;1.20;;
20725;SDS011;10524;48.132;8.518;2023-04-10T11:57:44;2.00;;;1.60;;
20725;SDS011;10524;48.132;8.518;2023-04-10T12:00:10;2.03;;;1.75;;
20725;SDS011;10524;48.132;8.518;2023-04-10T12:02:48;1.88;;;1.48;;
20725;SDS011;10524;48.132;8.518;2023-04-10T12:05:15;1.90;;;1.60;;
20725;SDS011;10524;48.132;8.518;2023-04-10T12:07:41;2.92;;;2.63;;
20725;SDS011;10524;48.132;8.518;2023-04-10T12:10:07;1.67;;;1.58;;
20725;SDS011;10524;48.132;8.518;2023-04-10T12:12:34;1.33;;;1.23;;
20725;SDS011;10524;48.132;8.518;2023-04-10T12:15:00;3.65;;;2.33;;
20725;SDS011;10524;48.132;8.518;2023-04-10T12:17:27;2.55;;;2.13;;
20725;SDS011;10524;48.132;8.518;2023-04-10T12:19:53;1.80;;;1.70;;
20725;SDS011;10524;48.132;8.518;2023-04-10T12:22:18;1.65;;;1.50;;
20725;SDS011;10524;48.132;8.518;2023-04-10T12:24:45;2.35;;;2.15;;
20725;SDS011;10524;48.132;8.518;2023-04-10T12:27:22;2.10;;;1.73;;
20725;SDS011;10524;48.132;8.518;2023-04-10T12:29:50;1.83;;;1.65;;
20725;SDS011;10524;48.132;8.518;2023-04-10T12:32:17;1.70;;;1.60;;
20725;SDS011;10524;48.132;8.518;2023-04-10T12:34:50;2.42;;;1.70;;
20725;SDS011;10524;48.132;8.518;2023-04-10T12:37:22;1.92;;;1.73;;
20725;SDS011;10524;48.132;8.518;2023-04-10T12:39:49;1.70;;;1.60;;
20725;SDS011;10524;48.132;8.518;2023-04-10T12:42:19;1.88;;;1.77;;
20725;SDS011;10524;48.132;8.518;2023-04-10T12:47:22;1.90;;;1.67;;
20725;SDS011;10524;48.132;8.518;2023-04-10T12:50:11;1.98;;;1.75;;
20725;SDS011;10524;48.132;8.518;2023-04-10T12:52:40;2.13;;;1.83;;
20725;SDS011;10524;48.132;8.518;2023-04-10T12:55:14;2.10;;;1.90;;
20725;SDS011;10524;48.132;8.518;2023-04-10T12:57:42;2.25;;;2.00;;
20725;SDS011;10524;48.132;8.518;2023-04-10T13:00:10;2.38;;;2.00;;
20725;SDS011;10524;48.132;8.518;2023-04-10T13:02:40;2.17;;;1.98;;
20725;SDS011;10524;48.132;8.518;2023-04-10T13:05:06;1.80;;;1.70;;
20725;SDS011;10524;48.132;8.518;2023-04-10T13:07:32;3.72;;;2.10;;
20725;SDS011;10524;48.132;8.518;2023-04-10T13:09:58;1.88;;;1.67;;
20725;SDS011;10524;48.132;8.518;2023-04-10T13:12:24;2.40;;;2.00;;
20725;SDS011;10524;48.132;8.518;2023-04-10T13:14:51;2.30;;;2.10;;
20725;SDS011;10524;48.132;8.518;2023-04-10T13:17:20;2.65;;;2.20;;
20725;SDS011;10524;48.132;8.518;2023-04-10T13:19:46;3.30;;;2.08;;
20725;SDS011;10524;48.132;8.518;2023-04-10T13:22:12;2.05;;;1.90;;
20725;SDS011;10524;48.132;8.518;2023-04-10T13:24:38;2.13;;;1.92;;
20725;SDS011;10524;48.132;8.518;2023-04-10T13:27:04;3.20;;;2.90;;
20725;SDS011;10524;48.132;8.518;2023-04-10T13:29:30;3.25;;;2.80;;
20725;SDS011;10524;48.132;8.518;2023-04-10T13:31:56;2.42;;;2.08;;
20725;SDS011;10524;48.132;8.518;2023-04-10T13:34:24;2.28;;;2.08;;
20725;SDS011;10524;48.132;8.518;2023-04-10T13:36:51;3.55;;;2.10;;
20725;SDS011;10524;48.132;8.518;2023-04-10T13:39:16;2.50;;;2.30;;
20725;SDS011;10524;48.132;8.518;2023-04-10T13:41:42;2.30;;;2.10;;
20725;SDS011;10524;48.132;8.518;2023-04-10T13:44:08;2.25;;;2.05;;
20725;SDS011;10524;48.132;8.518;2023-04-10T13:46:34;2.30;;;2.05;;
20725;SDS011;10524;48.132;8.518;2023-04-10T13:48:59;2.15;;;1.85;;
20725;SDS011;10524;48.132;8.518;2023-04-10T13:51:25;2.03;;;1.88;;
20725;SDS011;10524;48.132;8.518;2023-04-10T13:53:51;3.20;;;2.90;;
20725;SDS011;10524;48.132;8.518;2023-04-10T13:56:18;2.47;;;2.20;;
20725;SDS011;10524;48.132;8.518;2023-04-10T13:58:44;2.10;;;1.90;;
20725;SDS011;10524;48.132;8.518;2023-04-10T14:01:10;2.60;;;2.10;;
20725;SDS011;10524;48.132;8.518;2023-04-10T14:03:37;3.25;;;2.30;;
20725;SDS011;10524;48.132;8.518;2023-04-10T14:06:02;2.00;;;1.90;;
20725;SDS011;10524;48.132;8.518;2023-04-10T14:08:28;1.83;;;1.73;;
20725;SDS011;10524;48.132;8.518;2023-04-10T14:10:54;2.90;;;2.20;;
20725;SDS011;10524;48.132;8.518;2023-04-10T14:13:20;1.92;;;1.73;;
20725;SDS011;10524;48.132;8.518;2023-04-10T14:15:46;3.70;;;2.08;;
20725;SDS011;10524;48.132;8.518;2023-04-10T14:18:12;2.50;;;2.30;;
20725;SDS011;10524;48.132;8.518;2023-04-10T14:20:41;2.90;;;2.30;;
20725;SDS011;10524;48.132;8.518;2023-04-10T14:23:07;3.10;;;2.50;;
20725;SDS011;10524;48.132;8.518;2023-04-10T14:25:33;2.55;;;2.25;;
20725;SDS011;10524;48.132;8.518;2023-04-10T14:27:58;2.47;;;2.28;;
20725;SDS011;10524;48.132;8.518;2023-04-10T14:30:24;2.28;;;2.05;;
20725;SDS011;10524;48.132;8.518;2023-04-10T14:32:55;2.53;;;2.33;;
20725;SDS011;10524;48.132;8.518;2023-04-10T14:35:21;2.20;;;2.00;;
20725;SDS011;10524;48.132;8.518;2023-04-10T14:37:46;2.35;;;2.10;;
20725;SDS011;10524;48.132;8.518;2023-04-10T14:40:12;2.40;;;2.20;;
20725;SDS011;10524;48.132;8.518;2023-04-10T14:42:38;3.33;;;2.40;;
20725;SDS011;10524;48.132;8.518;2023-04-10T14:45:03;3.55;;;2.45;;
20725;SDS011;10524;48.132;8.518;2023-04-10T14:47:30;2.63;;;2.42;;
20725;SDS011;10524;48.132;8.518;2023-04-10T14:49:56;4.90;;;2.85;;
20725;SDS011;10524;48.132;8.518;2023-04-10T14:52:22;3.13;;;2.50;;
20725;SDS011;10524;48.132;8.518;2023-04-10T14:54:47;2.75;;;2.55;;
20725;SDS011;10524;48.132;8.518;2023-04-10T14:57:13;2.60;;;2.40;;
20725;SDS011;10524;48.132;8.518;2023-04-10T14:59:39;2.88;;;2.60;;
20725;SDS011;10524;48.132;8.518;2023-04-10T15:02:06;2.80;;;2.60;;
20725;SDS011;10524;48.132;8.518;2023-04-10T15:04:31;2.67;;;2.47;;
20725;SDS011;10524;48.132;8.518;2023-04-10T15:06:57;3.70;;;3.17;;
20725;SDS011;10524;48.132;8.518;2023-04-10T15:09:23;3.47;;;2.60;;
20725;SDS011;10524;48.132;8.518;2023-04-10T15:11:48;2.90;;;2.67;;
20725;SDS011;10524;48.132;8.518;2023-04-10T15:14:14;3.38;;;3.05;;
20725;SDS011;10524;48.132;8.518;2023-04-10T15:16:40;4.80;;;3.25;;
20725;SDS011;10524;48.132;8.518;2023-04-10T15:19:06;3.50;;;3.20;;
20725;SDS011;10524;48.132;8.518;2023-04-10T15:21:31;3.20;;;2.90;;